Time;durP1;ratioP1;P1;durP2;ratioP2;P2;SDS_P1;SDS_P2;PMS_P1;PMS_P2;Temp;Humidity;BMP_temperature;BMP_pressure;BME280_temperature;BME280_humidity;BME280_pressure;Samples;Min_cycle;Max_cycle;Signal;HPM_P1;HPM_P2
2022/11/16 05:03:40;;;;;;;;;;;;;;;13.54;80.00;95843.59;4214617;27;10438;-68
2022/11/16 05:05:43;;;;;;;;;;;;;;;13.85;79.49;95849.50;4212245;28;5876;-68
2022/11/16 05:07:46;;;;;;;;;;;;;;;14.06;78.74;95843.53;4212020;28;5793;-67
2022/11/16 05:09:49;;;;;;;;;;;;;;;14.26;78.54;95843.09;4213614;28;5932;-68
2022/11/16 05:11:52;;;;;;;;;;;;;;;14.40;78.05;95846.28;4214883;28;5768;-68
2022/11/16 05:13:55;;;;;;;;;;;;;;;14.52;77.68;95844.38;4214746;28;5779;-69
2022/11/16 05:15:58;;;;;;;;;;;;;;;14.62;77.27;95843.75;4214624;28;5686;-68
2022/11/16 05:18:00;;;;;;;;;;;;;;;14.70;77.19;95841.47;4224423;28;5668;-68
2022/11/16 05:22:26;;;;;;;;;;;;;;;14.81;76.46;95840.56;4214314;28;6964;-68
2022/11/16 05:24:34;;;;;;;;;;;;;;;14.85;76.33;95846.25;4213631;28;5706;-68
2022/11/16 05:26:37;;;;;;;;;;;;;;;14.88;76.25;95844.94;4205792;28;5718;-68
2022/11/16 05:28:40;;;;;;;;;;;;;;;14.90;76.24;95846.31;4211121;28;5710;-69
2022/11/16 05:30:45;;;;;;;;;;;;;;;14.93;76.29;95843.16;4211034;28;5710;-68
2022/11/16 05:32:47;;;;;;;;;;;;;;;14.96;76.13;95844.53;4213912;28;5832;-68
2022/11/16 05:34:50;;;;;;;;;;;;;;;15.00;75.87;95841.13;4217543;28;5702;-68
2022/11/16 05:36:55;;;;;;;;;;;;;;;15.01;75.69;95841.94;4208732;28;5694;-69
2022/11/16 05:38:58;;;;;;;;;;;;;;;15.02;75.74;95835.56;4204410;28;5682;-68
2022/11/16 05:41:00;;;;;;;;;;;;;;;15.04;75.34;95830.81;4214152;28;5712;-70
2022/11/16 05:43:03;;;;;;;;;;;;;;;15.04;75.46;95839.59;4212372;28;5780;-69
2022/11/16 05:45:06;;;;;;;;;;;;;;;15.06;75.21;95832.19;4213474;28;5872;-69
2022/11/16 05:47:09;;;;;;;;;;;;;;;15.07;75.08;95828.47;4209300;28;5891;-65
2022/11/16 05:49:13;;;;;;;;;;;;;;;15.05;75.02;95830.56;4208919;28;5896;-73
2022/11/16 05:51:16;;;;;;;;;;;;;;;15.08;74.97;95831.94;4206997;28;5809;-67
2022/11/16 05:53:20;;;;;;;;;;;;;;;15.06;74.83;95824.19;4210378;28;6375;-68
2022/11/16 05:55:23;;;;;;;;;;;;;;;15.07;74.64;95828.47;4210087;28;5738;-68
2022/11/16 05:57:25;;;;;;;;;;;;;;;15.07;74.77;95830.34;4212401;28;5757;-72
2022/11/16 05:59:28;;;;;;;;;;;;;;;15.07;74.74;95833.81;4205109;28;5796;-64
2022/11/16 06:01:31;;;;;;;;;;;;;;;15.08;74.44;95840.72;4209091;28;5806;-73
2022/11/16 06:03:35;;;;;;;;;;;;;;;15.07;74.37;95836.47;4220733;28;5715;-74
2022/11/16 06:05:38;;;;;;;;;;;;;;;15.09;74.41;95845.00;4217706;28;5708;-71
2022/11/16 06:07:42;;;;;;;;;;;;;;;15.10;74.02;95840.47;4216111;28;5609;-71
2022/11/16 06:09:46;;;;;;;;;;;;;;;15.10;73.94;95835.16;4212723;28;5737;-67
2022/11/16 06:11:49;;;;;;;;;;;;;;;15.08;73.94;95831.94;4218322;28;6411;-69
2022/11/16 06:13:52;;;;;;;;;;;;;;;15.08;73.80;95830.09;4217373;28;5616;-69
2022/11/16 06:15:54;;;;;;;;;;;;;;;15.09;74.04;95829.03;4219021;28;5805;-70
2022/11/16 06:17:57;;;;;;;;;;;;;;;15.12;73.57;95827.72;4217738;28;5705;-70
2022/11/16 06:20:00;;;;;;;;;;;;;;;15.12;73.55;95831.19;4217994;28;5604;-70
2022/11/16 06:22:03;;;;;;;;;;;;;;;15.13;73.62;95826.69;4216873;28;5097;-70
2022/11/16 06:24:08;;;;;;;;;;;;;;;15.14;73.33;95837.06;4214207;28;5798;-66
2022/11/16 06:26:13;;;;;;;;;;;;;;;15.14;73.22;95823.75;4219396;28;5524;-66
2022/11/16 06:28:15;;;;;;;;;;;;;;;15.17;73.15;95830.44;4218186;28;5803;-65
2022/11/16 06:30:18;;;;;;;;;;;;;;;15.16;73.14;95834.16;4218206;28;5612;-65
2022/11/16 06:32:21;;;;;;;;;;;;;;;15.20;73.13;95839.81;4209367;28;5721;-69
2022/11/16 06:34:24;;;;;;;;;;;;;;;15.20;73.04;95845.16;4208367;28;5935;-68
2022/11/16 06:36:27;;;;;;;;;;;;;;;15.20;72.78;95840.63;4211397;28;6184;-64
2022/11/16 06:38:30;;;;;;;;;;;;;;;15.22;72.77;95840.38;4213132;28;6306;-63
2022/11/16 06:40:34;;;;;;;;;;;;;;;15.23;72.71;95842.78;4216747;28;5731;-64
2022/11/16 06:42:38;;;;;;;;;;;;;;;15.23;72.59;95842.00;4208724;28;5836;-64
2022/11/16 06:44:41;;;;;;;;;;;;;;;15.24;72.61;95843.59;4217148;28;5617;-64
2022/11/16 06:46:44;;;;;;;;;;;;;;;15.24;72.51;95841.75;4212687;28;5707;-64
2022/11/16 06:48:46;;;;;;;;;;;;;;;15.22;72.25;95843.03;4214576;28;5660;-70
2022/11/16 06:50:51;;;;;;;;;;;;;;;15.20;72.20;95843.28;4216502;28;5699;-69
2022/11/16 06:52:54;;;;;;;;;;;;;;;15.21;72.37;95842.25;4215291;28;5803;-70
2022/11/16 06:54:57;;;;;;;;;;;;;;;15.20;72.11;95845.97;4214934;28;5621;-70
2022/11/16 06:56:59;;;;;;;;;;;;;;;15.21;72.19;95852.09;4214057;28;5615;-69
2022/11/16 06:59:03;;;;;;;;;;;;;;;15.21;72.13;95844.09;4214354;28;5953;-69
2022/11/16 07:01:07;;;;;;;;;;;;;;;15.23;71.89;95847.31;4211769;28;7764;-69
2022/11/16 07:03:09;;;;;;;;;;;;;;;15.23;71.88;95853.44;4214662;28;5615;-69
2022/11/16 07:05:12;;;;;;;;;;;;;;;15.26;71.83;95855.59;4210596;28;5785;-69
2022/11/16 07:07:16;;;;;;;;;;;;;;;15.26;72.03;95847.63;4215021;28;5637;-68
2022/11/16 07:09:19;;;;;;;;;;;;;;;15.29;71.49;95854.31;4218344;28;5783;-68
2022/11/16 07:11:22;;;;;;;;;;;;;;;15.29;71.56;95851.66;4215671;28;5719;-69
2022/11/16 07:13:24;;;;;;;;;;;;;;;15.29;71.39;95856.97;4210230;28;5725;-68
2022/11/16 07:15:31;;;;;;;;;;;;;;;15.30;71.34;95853.28;4213597;28;5745;-71
2022/11/16 07:17:34;;;;;;;;;;;;;;;15.30;71.33;95855.94;4218759;28;5605;-65
2022/11/16 07:19:38;;;;;;;;;;;;;;;15.30;70.98;95859.41;4208742;28;5645;-70
2022/11/16 07:21:41;;;;;;;;;;;;;;;15.29;70.98;95865.78;4209382;28;5812;-69
2022/11/16 07:23:44;;;;;;;;;;;;;;;15.28;70.92;95861.50;4215315;28;5680;-70
2022/11/16 07:25:47;;;;;;;;;;;;;;;15.29;71.00;95867.63;4191964;28;5734;-70
2022/11/16 07:27:50;;;;;;;;;;;;;;;15.30;70.89;95867.41;4216618;28;5607;-70
2022/11/16 07:29:54;;;;;;;;;;;;;;;15.32;70.64;95870.63;4211503;28;5718;-70
2022/11/16 07:31:58;;;;;;;;;;;;;;;15.34;70.71;95873.84;4216514;28;5601;-70
2022/11/16 07:34:01;;;;;;;;;;;;;;;15.36;70.64;95871.72;4208832;28;5858;-70
2022/11/16 07:36:06;;;;;;;;;;;;;;;15.38;70.60;95868.81;4207108;28;5688;-70
2022/11/16 07:38:09;;;;;;;;;;;;;;;15.39;70.21;95865.91;4215589;28;5609;-70
2022/11/16 07:40:18;;;;;;;;;;;;;;;15.40;70.31;95872.88;4212245;28;5746;-66
2022/11/16 07:42:21;;;;;;;;;;;;;;;15.41;70.19;95874.47;4214528;28;5613;-66
2022/11/16 07:44:24;;;;;;;;;;;;;;;15.40;70.14;95872.88;4217657;28;5639;-66
2022/11/16 07:46:27;;;;;;;;;;;;;;;15.41;70.20;95882.47;4218169;28;5715;-66
2022/11/16 07:48:50;;;;;;;;;;;;;;;15.41;69.96;95885.13;4213201;28;5740;-66
2022/11/16 07:50:52;;;;;;;;;;;;;;;15.41;69.93;95882.47;4226918;28;5705;-66
2022/11/16 07:52:55;;;;;;;;;;;;;;;15.42;69.88;95877.94;4222646;28;5628;-66
2022/11/16 07:54:58;;;;;;;;;;;;;;;15.43;69.79;95879.56;4217614;28;5615;-66
2022/11/16 07:57:01;;;;;;;;;;;;;;;15.44;69.70;95887.28;4217197;28;5604;-66
2022/11/16 07:59:04;;;;;;;;;;;;;;;15.45;69.59;95890.75;4216341;28;5620;-66
2022/11/16 08:01:10;;;;;;;;;;;;;;;15.47;69.43;95886.00;4217403;28;5623;-66
2022/11/16 08:03:13;;;;;;;;;;;;;;;15.50;69.51;95887.34;4217241;28;5616;-66
2022/11/16 08:05:17;;;;;;;;;;;;;;;15.53;69.44;95882.38;4217103;28;5618;-66
2022/11/16 08:07:20;;;;;;;;;;;;;;;15.54;68.95;95883.97;4221741;28;5680;-65
2022/11/16 08:09:23;;;;;;;;;;;;;;;15.54;69.07;95883.97;4218121;28;5711;-66
2022/11/16 08:11:26;;;;;;;;;;;;;;;15.54;68.93;95883.97;4216949;28;5632;-66
2022/11/16 08:13:32;;;;;;;;;;;;;;;15.53;68.63;95886.88;4199094;28;6129;-66
2022/11/16 08:15:36;;;;;;;;;;;;;;;15.50;68.65;95893.47;4217263;28;5616;-65
2022/11/16 08:17:38;;;;;;;;;;;;;;;15.46;68.47;95892.38;4217123;28;5690;-65
2022/11/16 08:19:42;;;;;;;;;;;;;;;15.46;68.42;95889.72;4214535;28;5763;-65
2022/11/16 08:21:46;;;;;;;;;;;;;;;15.45;68.47;95880.13;4198332;28;5804;-65
2022/11/16 08:23:49;;;;;;;;;;;;;;;15.45;68.33;95890.75;4202382;28;5638;-66
2022/11/16 08:26:00;;;;;;;;;;;;;;;15.46;68.26;95892.38;4213803;28;5746;-66
2022/11/16 08:28:03;;;;;;;;;;;;;;;15.46;67.93;95884.38;4213264;28;5715;-66
2022/11/16 08:30:08;;;;;;;;;;;;;;;15.45;67.95;95888.09;4213273;28;5609;-65
2022/11/16 08:32:11;;;;;;;;;;;;;;;15.40;67.94;95894.19;4215982;28;5624;-66
2022/11/16 08:34:14;;;;;;;;;;;;;;;15.42;67.75;95891.25;4206732;28;5806;-66
2022/11/16 08:36:17;;;;;;;;;;;;;;;15.43;67.84;95890.22;4217000;28;5704;-65
2022/11/16 08:38:21;;;;;;;;;;;;;;;15.43;67.76;95892.88;4213360;28;5113;-66
2022/11/16 08:40:24;;;;;;;;;;;;;;;15.44;67.68;95884.63;4208715;28;7683;-66
2022/11/16 08:42:27;;;;;;;;;;;;;;;15.43;67.37;95888.34;4212617;28;5624;-65
2022/11/16 08:44:30;;;;;;;;;;;;;;;15.42;67.59;95891.25;4216666;28;5608;-65
2022/11/16 08:46:33;;;;;;;;;;;;;;;15.42;67.51;95886.75;4217001;28;5620;-65
2022/11/16 08:48:36;;;;;;;;;;;;;;;15.42;67.39;95891.25;4217367;28;5524;-65
2022/11/16 08:50:39;;;;;;;;;;;;;;;15.41;67.31;95895.78;4217114;28;7683;-66
2022/11/16 08:53:02;;;;;;;;;;;;;;;15.38;67.16;95896.25;4216506;28;5668;-66
2022/11/16 08:55:07;;;;;;;;;;;;;;;15.38;67.01;95893.59;4217184;28;5659;-66
2022/11/16 08:57:12;;;;;;;;;;;;;;;15.39;67.00;95887.22;4199071;28;5712;-65
2022/11/16 08:59:15;;;;;;;;;;;;;;;15.42;66.81;95896.59;4217697;28;5620;-65
2022/11/16 09:01:20;;;;;;;;;;;;;;;15.43;66.70;95884.88;4217241;28;5815;-66
2022/11/16 09:03:23;;;;;;;;;;;;;;;15.44;66.65;95884.63;4198947;28;5718;-66
2022/11/16 09:05:29;;;;;;;;;;;;;;;15.45;66.71;95888.09;4216852;28;5689;-66
2022/11/16 09:07:32;;;;;;;;;;;;;;;15.45;66.71;95885.44;4217032;28;6298;-66
2022/11/16 09:09:36;;;;;;;;;;;;;;;15.46;66.52;95880.91;4216728;28;5733;-66
2022/11/16 09:11:40;;;;;;;;;;;;;;;15.44;66.59;95881.97;4209203;28;5645;-67
2022/11/16 09:13:45;;;;;;;;;;;;;;;15.44;66.42;95883.81;4213684;28;5932;-66
2022/11/16 09:15:55;;;;;;;;;;;;;;;15.44;66.36;95878.50;4206388;28;5937;-66
2022/11/16 09:17:58;;;;;;;;;;;;;;;15.41;66.32;95882.47;4204965;28;5620;-66
2022/11/16 09:20:01;;;;;;;;;;;;;;;15.43;66.42;95874.22;4207532;28;5628;-66
2022/11/16 09:22:04;;;;;;;;;;;;;;;15.43;65.97;95875.03;4211034;28;5616;-66
2022/11/16 09:24:07;;;;;;;;;;;;;;;15.42;66.16;95881.41;4208795;28;5604;-66
2022/11/16 09:26:10;;;;;;;;;;;;;;;15.44;66.05;95878.50;4209902;28;5866;-66
2022/11/16 09:28:15;;;;;;;;;;;;;;;15.44;66.07;95881.16;4206687;28;5623;-66
2022/11/16 09:30:18;;;;;;;;;;;;;;;15.43;65.88;95880.38;4209188;28;5761;-66
2022/11/16 09:32:21;;;;;;;;;;;;;;;15.43;65.87;95872.38;4207786;28;5237;-65
2022/11/16 09:34:24;;;;;;;;;;;;;;;15.43;65.72;95877.69;4214849;28;7675;-65
2022/11/16 09:36:28;;;;;;;;;;;;;;;15.42;65.69;95864.63;4216856;28;5692;-66
2022/11/16 09:38:31;;;;;;;;;;;;;;;15.43;65.61;95874.22;4215138;28;5609;-66
2022/11/16 09:40:54;;;;;;;;;;;;;;;15.40;65.49;95880.88;4213240;28;5597;-66
2022/11/16 09:43:05;;;;;;;;;;;;;;;15.41;65.38;95873.69;4218847;28;5690;-69
2022/11/16 09:45:21;;;;;;;;;;;;;;;15.42;65.43;95877.94;4217561;28;5620;-68
2022/11/16 09:47:35;;;;;;;;;;;;;;;15.43;65.36;95883.03;4215394;28;5734;-66
2022/11/16 09:49:42;;;;;;;;;;;;;;;15.45;65.39;95885.44;4209636;28;5695;-67
2022/11/16 09:51:48;;;;;;;;;;;;;;;15.47;65.30;95893.97;4212162;28;5683;-68
2022/11/16 09:53:58;;;;;;;;;;;;;;;15.47;65.00;95896.66;4219065;28;5604;-66
2022/11/16 09:56:04;;;;;;;;;;;;;;;15.45;65.07;95890.75;4219086;28;5604;-66
2022/11/16 09:58:13;;;;;;;;;;;;;;;15.45;65.05;95890.75;4219838;28;5721;-66
2022/11/16 10:00:22;;;;;;;;;;;;;;;15.47;64.99;95903.84;4218802;28;5642;-67
2022/11/16 10:02:30;;;;;;;;;;;;;;;15.45;65.06;95893.44;4212776;28;5718;-65
2022/11/16 10:04:45;;;;;;;;;;;;;;;15.47;64.93;95899.31;4216710;28;5624;-65
2022/11/16 10:06:54;;;;;;;;;;;;;;;15.47;64.73;95904.63;4199275;28;5717;-65
2022/11/16 10:08:57;;;;;;;;;;;;;;;15.47;64.83;95907.31;4219010;28;5735;-66
2022/11/16 10:11:23;;;;;;;;;;;;;;;15.47;64.77;95901.97;4219020;28;5619;-66
2022/11/16 10:13:41;;;;;;;;;;;;;;;15.51;64.61;95899.63;4219243;28;5708;-65
2022/11/16 10:16:03;;;;;;;;;;;;;;;15.51;64.55;95903.09;4212142;28;5621;-65
2022/11/16 10:18:17;;;;;;;;;;;;;;;15.53;64.48;95898.34;4219277;28;5703;-65
2022/11/16 10:20:46;;;;;;;;;;;;;;;15.53;64.36;95885.03;4217146;28;5609;-64
2022/11/16 10:23:00;;;;;;;;;;;;;;;15.53;64.50;95885.03;4207673;28;5778;-64
2022/11/16 10:25:13;;;;;;;;;;;;;;;15.54;64.23;95883.97;4210600;28;5612;-65
2022/11/16 10:27:36;;;;;;;;;;;;;;;15.52;64.18;95880.75;4217570;28;5629;-64
2022/11/16 10:29:50;;;;;;;;;;;;;;;15.50;64.19;95877.50;4210805;28;5727;-66
2022/11/16 10:32:10;;;;;;;;;;;;;;;15.50;63.99;95877.50;4218742;28;5704;-66
2022/11/16 10:34:20;;;;;;;;;;;;;;;15.51;63.90;95875.66;4218700;28;5616;-68
2022/11/16 10:36:27;;;;;;;;;;;;;;;15.58;64.00;95876.28;4218991;28;5620;-68
2022/11/16 10:38:31;;;;;;;;;;;;;;;15.59;63.75;95875.22;4218866;28;5620;-69
2022/11/16 10:40:37;;;;;;;;;;;;;;;15.61;63.77;95873.94;4217567;28;5646;-71
2022/11/16 10:42:41;;;;;;;;;;;;;;;15.62;63.81;95867.56;4216730;28;5928;-67
2022/11/16 10:44:48;;;;;;;;;;;;;;;15.64;63.59;95862.81;4215557;28;5736;-68
2022/11/16 10:47:01;;;;;;;;;;;;;;;15.65;63.60;95864.44;4211441;28;5726;-68
2022/11/16 10:49:16;;;;;;;;;;;;;;;15.68;63.49;95858.59;4212745;28;5659;-68
2022/11/16 10:51:23;;;;;;;;;;;;;;;15.72;63.31;95864.22;4210695;28;5774;-69
2022/11/16 10:53:28;;;;;;;;;;;;;;;15.73;63.40;95861.31;4215709;28;5710;-68
2022/11/16 10:55:32;;;;;;;;;;;;;;;15.74;63.50;95867.44;4213189;28;5699;-68
2022/11/16 10:57:53;;;;;;;;;;;;;;;15.73;63.27;95858.66;4219322;28;5688;-69
2022/11/16 10:59:57;;;;;;;;;;;;;;;15.73;63.00;95863.19;4217847;28;5604;-69
2022/11/16 11:02:27;;;;;;;;;;;;;;;15.73;63.21;95853.31;4217654;28;5699;-68
2022/11/16 11:04:32;;;;;;;;;;;;;;;15.79;63.25;95850.72;4217804;28;5619;-69
2022/11/16 11:06:35;;;;;;;;;;;;;;;15.79;63.09;95848.88;4212759;28;5103;-69
2022/11/16 11:08:37;;;;;;;;;;;;;;;15.80;63.15;95839.81;4209223;28;7675;-68
2022/11/16 11:10:41;;;;;;;;;;;;;;;15.81;63.22;95837.97;4216631;28;5632;-69
2022/11/16 11:13:01;;;;;;;;;;;;;;;15.80;63.26;95842.50;4218149;28;5609;-68
2022/11/16 11:15:19;;;;;;;;;;;;;;;15.79;62.94;95837.41;4218145;28;5861;-68
2022/11/16 11:17:28;;;;;;;;;;;;;;;15.79;63.15;95837.41;4218247;28;5620;-68
2022/11/16 11:19:35;;;;;;;;;;;;;;;15.79;63.07;95826.75;4218046;28;5620;-67
2022/11/16 11:21:37;;;;;;;;;;;;;;;15.81;63.05;95827.31;4209655;28;5620;-68
2022/11/16 11:23:44;;;;;;;;;;;;;;;15.81;63.14;95824.63;4217628;28;5699;-73
2022/11/16 11:25:53;;;;;;;;;;;;;;;15.82;63.19;95826.25;4204797;28;5717;-76
2022/11/16 11:28:05;;;;;;;;;;;;;;;15.85;62.94;95817.75;4216047;28;5635;-80
2022/11/16 11:30:19;;;;;;;;;;;;;;;15.86;62.80;95803.38;4215152;28;5628;-81
2022/11/16 11:32:27;;;;;;;;;;;;;;;15.86;62.92;95796.19;4217569;28;5668;-79
2022/11/16 11:34:32;;;;;;;;;;;;;;;15.88;62.96;95782.63;4217833;28;5600;-72
2022/11/16 11:36:40;;;;;;;;;;;;;;;15.89;62.80;95778.91;4216976;28;5771;-72
2022/11/16 11:38:56;;;;;;;;;;;;;;;15.89;62.82;95778.91;4213792;28;5817;-68
2022/11/16 11:41:00;;;;;;;;;;;;;;;15.91;62.82;95784.78;4214746;28;5628;-72
2022/11/16 11:43:05;;;;;;;;;;;;;;;15.93;62.81;95788.00;4209853;28;5359;-69
2022/11/16 11:45:13;;;;;;;;;;;;;;;15.93;62.62;95790.66;4217426;28;7686;-72
2022/11/16 11:47:30;;;;;;;;;;;;;;;15.95;62.61;95792.00;4217306;28;5775;-70
2022/11/16 11:50:01;;;;;;;;;;;;;;;15.96;62.56;95800.81;4210766;28;5699;-73
2022/11/16 11:52:16;;;;;;;;;;;;;;;15.98;62.66;95794.19;4216066;28;5627;-75
2022/11/16 11:54:26;;;;;;;;;;;;;;;15.99;62.65;95787.00;4208117;28;5819;-70
2022/11/16 11:56:32;;;;;;;;;;;;;;;15.98;62.62;95774.72;4217546;28;5616;-69
2022/11/16 11:58:39;;;;;;;;;;;;;;;15.98;62.58;95772.88;4211746;28;5611;-69
2022/11/16 12:00:54;;;;;;;;;;;;;;;15.98;62.57;95769.41;4205831;28;5629;-69
2022/11/16 12:03:22;;;;;;;;;;;;;;;15.93;62.50;95748.00;4206944;28;5898;-68
2022/11/16 12:05:45;;;;;;;;;;;;;;;15.94;62.55;95754.94;4209738;28;5731;-73
2022/11/16 12:08:04;;;;;;;;;;;;;;;15.90;62.54;95759.97;4203089;28;5867;-76
2022/11/16 12:10:19;;;;;;;;;;;;;;;15.86;62.65;95747.44;4207854;28;6420;-66
2022/11/16 12:12:35;;;;;;;;;;;;;;;15.88;62.45;95753.31;4201198;28;5651;-66
2022/11/16 12:15:04;;;;;;;;;;;;;;;15.89;62.42;95754.91;4200483;28;5718;-65
2022/11/16 12:17:14;;;;;;;;;;;;;;;15.91;62.45;95744.78;4213340;28;5712;-65
2022/11/16 12:19:41;;;;;;;;;;;;;;;15.92;62.26;95741.06;4211105;28;5612;-66
2022/11/16 12:21:53;;;;;;;;;;;;;;;15.91;62.36;95736.78;4214163;28;5624;-65
2022/11/16 12:24:12;;;;;;;;;;;;;;;15.93;62.33;95742.69;4211369;28;5707;-65
2022/11/16 12:26:22;;;;;;;;;;;;;;;15.92;62.22;95747.19;4217140;28;5628;-65
2022/11/16 12:28:42;;;;;;;;;;;;;;;15.90;62.21;95738.66;4216753;28;5714;-66
2022/11/16 12:31:04;;;;;;;;;;;;;;;15.88;62.10;95734.66;4211162;28;5676;-65
2022/11/16 12:33:23;;;;;;;;;;;;;;;15.88;62.25;95730.13;4216603;28;5604;-65
2022/11/16 12:35:39;;;;;;;;;;;;;;;15.88;62.21;95732.78;4199001;28;5774;-65
2022/11/16 12:37:49;;;;;;;;;;;;;;;15.88;62.38;95718.66;4205947;28;5695;-66
2022/11/16 12:40:08;;;;;;;;;;;;;;;15.89;62.26;95722.94;4202042;28;6320;-66
2022/11/16 12:42:24;;;;;;;;;;;;;;;15.90;62.19;95727.19;4200882;28;5635;-65
2022/11/16 12:44:46;;;;;;;;;;;;;;;15.91;62.03;95728.81;4211747;28;5616;-66
2022/11/16 12:47:02;;;;;;;;;;;;;;;15.90;62.07;95729.88;4210237;28;5660;-66
2022/11/16 12:49:28;;;;;;;;;;;;;;;15.90;62.07;95708.53;4205405;28;6686;-65
2022/11/16 12:51:44;;;;;;;;;;;;;;;15.90;61.94;95716.53;4200636;28;5624;-66
2022/11/16 12:54:05;;;;;;;;;;;;;;;15.91;61.84;95715.47;4204399;28;5717;-65
2022/11/16 12:56:18;;;;;;;;;;;;;;;15.91;61.83;95710.94;4204647;28;5596;-66
2022/11/16 12:58:34;;;;;;;;;;;;;;;15.92;61.82;95709.09;4204531;28;6006;-66
2022/11/16 13:00:53;;;;;;;;;;;;;;;15.91;61.71;95702.94;4203862;28;5642;-66
2022/11/16 13:03:14;;;;;;;;;;;;;;;15.92;61.81;95695.75;4202384;28;6203;-66
2022/11/16 13:05:21;;;;;;;;;;;;;;;15.91;61.75;95694.97;4209545;28;5718;-65
2022/11/16 13:07:28;;;;;;;;;;;;;;;15.91;61.52;95694.97;4204024;28;5718;-66
2022/11/16 13:09:35;;;;;;;;;;;;;;;15.93;61.53;95694.69;4207239;28;5596;-65
2022/11/16 13:11:43;;;;;;;;;;;;;;;15.92;61.55;95685.09;4203598;28;5097;-65
2022/11/16 13:13:50;;;;;;;;;;;;;;;15.91;61.36;95683.50;4208511;28;7687;-65
2022/11/16 13:15:57;;;;;;;;;;;;;;;15.92;61.41;95685.91;4206939;28;5836;-65
2022/11/16 13:18:03;;;;;;;;;;;;;;;15.94;61.32;95686.44;4209357;28;5616;-65
2022/11/16 13:20:20;;;;;;;;;;;;;;;15.94;61.33;95674.97;4203619;28;5715;-65
2022/11/16 13:22:27;;;;;;;;;;;;;;;15.94;61.45;95673.13;4208705;28;5715;-65
2022/11/16 13:24:45;;;;;;;;;;;;;;;15.94;61.23;95664.31;4203669;28;5627;-65
2022/11/16 13:26:57;;;;;;;;;;;;;;;15.94;61.13;95665.13;4204420;28;5646;-65
2022/11/16 13:29:09;;;;;;;;;;;;;;;15.95;61.34;95665.94;4205898;28;5611;-65
2022/11/16 13:31:18;;;;;;;;;;;;;;;15.96;61.29;95662.19;4209405;28;5679;-65
2022/11/16 13:33:32;;;;;;;;;;;;;;;15.97;61.36;95658.50;4214257;28;5761;-65
2022/11/16 13:35:39;;;;;;;;;;;;;;;15.98;61.24;95665.44;4205803;28;5612;-65
2022/11/16 13:37:46;;;;;;;;;;;;;;;15.98;61.28;95654.78;4210376;28;5747;-66
2022/11/16 13:40:19;;;;;;;;;;;;;;;15.97;61.16;95659.31;4191553;28;5734;-65
2022/11/16 13:42:24;;;;;;;;;;;;;;;15.98;61.28;95654.78;4211862;28;5685;-65
2022/11/16 13:44:29;;;;;;;;;;;;;;;15.98;61.04;95655.59;4206941;28;5647;-65
2022/11/16 13:46:42;;;;;;;;;;;;;;;15.98;61.04;95655.59;4212504;28;5618;-65
2022/11/16 13:49:01;;;;;;;;;;;;;;;15.99;61.14;95648.38;4203807;28;5617;-65
2022/11/16 13:51:07;;;;;;;;;;;;;;;16.00;60.95;95655.31;4207921;28;5827;-66
2022/11/16 13:53:14;;;;;;;;;;;;;;;15.99;61.07;95651.06;4206980;28;5641;-66
2022/11/16 13:55:42;;;;;;;;;;;;;;;15.98;60.95;95652.91;4211424;28;5719;-65
2022/11/16 13:57:52;;;;;;;;;;;;;;;15.98;60.88;95644.13;4207973;28;5133;-65
2022/11/16 14:00:10;;;;;;;;;;;;;;;15.96;60.95;95651.53;4213212;28;5763;-65
2022/11/16 14:02:30;;;;;;;;;;;;;;;15.99;60.84;95646.53;4200171;28;5677;-65
2022/11/16 14:04:42;;;;;;;;;;;;;;;16.00;60.81;95640.13;4219168;28;6345;-65
2022/11/16 14:06:58;;;;;;;;;;;;;;;16.02;60.57;95632.69;4218257;28;5711;-65
2022/11/16 14:09:00;;;;;;;;;;;;;;;16.04;60.53;95632.41;4217089;28;5182;-65
2022/11/16 14:11:05;;;;;;;;;;;;;;;16.05;60.55;95639.34;4204140;28;7711;-65
2022/11/16 14:13:41;;;;;;;;;;;;;;;16.06;60.48;95630.28;4203821;28;5816;-65
2022/11/16 14:15:43;;;;;;;;;;;;;;;16.09;60.38;95629.81;4209045;28;5711;-65
2022/11/16 14:17:55;;;;;;;;;;;;;;;16.11;60.53;95621.53;4212459;28;5616;-65
2022/11/16 14:19:58;;;;;;;;;;;;;;;16.12;60.43;95613.28;4210672;28;5600;-65
2022/11/16 14:22:08;;;;;;;;;;;;;;;16.12;60.34;95612.50;4206553;28;5806;-65
2022/11/16 14:24:25;;;;;;;;;;;;;;;16.12;60.35;95609.81;4208072;28;5616;-65
2022/11/16 14:26:42;;;;;;;;;;;;;;;16.11;60.22;95622.34;4205961;28;5740;-73
2022/11/16 14:29:11;;;;;;;;;;;;;;;16.10;60.15;95615.41;4210913;28;5699;-68
2022/11/16 14:31:20;;;;;;;;;;;;;;;16.11;60.13;95614.34;4214566;28;5751;-68
2022/11/16 14:33:30;;;;;;;;;;;;;;;16.09;60.03;95611.16;4204026;28;5660;-74
2022/11/16 14:35:37;;;;;;;;;;;;;;;16.09;60.14;95613.81;4208078;28;6375;-68
2022/11/16 14:37:41;;;;;;;;;;;;;;;16.07;59.96;95623.91;4208731;28;5673;-82
2022/11/16 14:39:44;;;;;;;;;;;;;;;16.08;60.08;95606.84;4199493;28;6367;-66
2022/11/16 14:41:47;;;;;;;;;;;;;;;16.07;59.73;95607.91;4214234;28;6290;-67
2022/11/16 14:43:54;;;;;;;;;;;;;;;16.07;59.82;95607.91;4218305;28;5616;-70
2022/11/16 14:46:02;;;;;;;;;;;;;;;16.07;59.74;95597.25;4213596;28;6294;-72
2022/11/16 14:48:12;;;;;;;;;;;;;;;16.07;59.75;95594.56;4218321;28;5600;-67
2022/11/16 14:50:21;;;;;;;;;;;;;;;16.07;59.79;95589.25;4218059;28;5609;-66
2022/11/16 14:52:34;;;;;;;;;;;;;;;16.08;59.87;95584.72;4217948;28;5104;-76
2022/11/16 14:54:41;;;;;;;;;;;;;;;16.09;59.87;95576.50;4209476;28;7777;-68
2022/11/16 14:56:57;;;;;;;;;;;;;;;16.09;59.86;95584.47;4224606;28;5754;-69
2022/11/16 14:59:02;;;;;;;;;;;;;;;16.09;59.73;95581.00;4215540;28;5691;-75
2022/11/16 15:01:07;;;;;;;;;;;;;;;16.07;59.82;95586.59;4218330;28;5698;-78
2022/11/16 15:03:12;;;;;;;;;;;;;;;16.09;59.78;95583.69;4217017;28;5707;-80
2022/11/16 15:05:17;;;;;;;;;;;;;;;16.10;59.76;95590.63;4217343;28;5770;-77
2022/11/16 15:07:23;;;;;;;;;;;;;;;16.08;59.76;95585.50;4198199;28;5707;-70
2022/11/16 15:09:29;;;;;;;;;;;;;;;16.09;59.89;95595.16;4218539;28;5861;-73
2022/11/16 15:13:54;;;;;;;;;;;;;;;16.08;59.87;95590.84;4215624;28;5675;-73
2022/11/16 15:16:15;;;;;;;;;;;;;;;16.07;59.82;95599.91;4216323;28;5715;-73
2022/11/16 15:18:20;;;;;;;;;;;;;;;16.05;59.85;95596.69;4217914;28;5620;-73
2022/11/16 15:20:24;;;;;;;;;;;;;;;16.08;59.74;95600.72;4219312;28;5740;-73
2022/11/16 15:22:39;;;;;;;;;;;;;;;16.06;59.46;95598.31;4212649;28;6546;-73
2022/11/16 15:24:41;;;;;;;;;;;;;;;16.05;59.73;95596.69;4210840;28;5675;-73
2022/11/16 15:26:44;;;;;;;;;;;;;;;16.06;59.78;95603.63;4206907;28;5773;-73
2022/11/16 15:28:48;;;;;;;;;;;;;;;16.05;59.76;95594.03;4209839;28;5639;-73
2022/11/16 15:30:54;;;;;;;;;;;;;;;16.05;59.77;95602.03;4207895;28;5650;-72
2022/11/16 15:32:58;;;;;;;;;;;;;;;16.05;59.75;95594.03;4210840;28;6432;-73
2022/11/16 15:35:01;;;;;;;;;;;;;;;16.05;59.55;95585.25;4215162;28;5702;-73
2022/11/16 15:37:10;;;;;;;;;;;;;;;16.02;59.63;95586.56;4214800;28;5612;-73
2022/11/16 15:39:17;;;;;;;;;;;;;;;16.03;59.86;95580.16;4217029;28;5706;-73
2022/11/16 15:41:21;;;;;;;;;;;;;;;16.01;59.71;95580.44;4216539;28;5778;-73
2022/11/16 15:43:28;;;;;;;;;;;;;;;16.02;59.87;95575.91;4213362;28;5862;-73
2022/11/16 15:45:31;;;;;;;;;;;;;;;16.02;59.72;95575.91;4211582;28;6441;-73
2022/11/16 15:47:36;;;;;;;;;;;;;;;16.00;59.88;95578.81;4216203;28;5758;-73
2022/11/16 15:49:42;;;;;;;;;;;;;;;15.98;59.62;95577.47;4217773;28;5747;-73
2022/11/16 15:51:45;;;;;;;;;;;;;;;15.96;59.94;95567.03;4204699;28;5725;-74
2022/11/16 15:53:50;;;;;;;;;;;;;;;15.96;59.74;95566.25;4209608;28;5631;-73
2022/11/16 15:55:52;;;;;;;;;;;;;;;15.93;59.67;95556.91;4208874;28;5619;-73
2022/11/16 15:58:05;;;;;;;;;;;;;;;15.91;59.81;95553.69;4209716;28;6334;-73
2022/11/16 16:00:22;;;;;;;;;;;;;;;15.89;59.72;95555.81;4197914;28;5788;-73
2022/11/16 16:02:27;;;;;;;;;;;;;;;15.88;59.72;95554.22;4204073;28;5717;-73
2022/11/16 16:04:30;;;;;;;;;;;;;;;15.87;59.70;95546.50;4212486;28;5620;-72
2022/11/16 16:06:45;;;;;;;;;;;;;;;15.85;59.77;95545.91;4209910;28;5726;-73
2022/11/16 16:09:03;;;;;;;;;;;;;;;15.82;59.72;95546.44;4209124;28;5632;-73
2022/11/16 16:11:09;;;;;;;;;;;;;;;15.82;59.71;95543.78;4207878;28;5743;-73
2022/11/16 16:13:31;;;;;;;;;;;;;;;15.79;59.56;95549.63;4202694;28;5089;-72
2022/11/16 16:15:35;;;;;;;;;;;;;;;15.77;59.72;95552.53;4202446;28;7855;-72
2022/11/16 16:17:38;;;;;;;;;;;;;;;15.75;59.68;95543.22;4201598;28;5651;-72
2022/11/16 16:19:43;;;;;;;;;;;;;;;15.72;59.65;95545.31;4214072;28;5702;-72
2022/11/16 16:21:47;;;;;;;;;;;;;;;15.72;59.73;95544.50;4202773;28;5706;-72
2022/11/16 16:23:52;;;;;;;;;;;;;;;15.70;59.70;95550.09;4214437;28;5604;-72